Time;durP1;ratioP1;P1;durP2;ratioP2;P2;SDS_P1;SDS_P2;PMS_P1;PMS_P2;Temp;Humidity;BMP_temperature;BMP_pressure;BME280_temperature;BME280_humidity;BME280_pressure;Samples;Min_cycle;Max_cycle;Signal;HPM_P1;HPM_P2
2022/01/17 00:00:30;;;;;;;603.10;97.07;;;0.00;99.90;;;;;;4947384;29;20130;-85
2022/01/17 00:02:59;;;;;;;536.22;90.93;;;0.00;99.90;;;;;;4954465;29;20082;-87
2022/01/17 00:05:25;;;;;;;475.13;88.07;;;0.00;99.90;;;;;;4944023;29;20027;-85
2022/01/17 00:07:51;;;;;;;382.10;78.25;;;0.00;99.90;;;;;;4945139;29;20035;-87
2022/01/17 00:10:17;;;;;;;543.35;96.95;;;0.00;99.90;;;;;;4944373;29;20032;-88
2022/01/17 00:12:45;;;;;;;635.25;105.50;;;0.00;99.90;;;;;;4928971;29;20423;-88
2022/01/17 00:15:41;;;;;;;365.23;79.43;;;0.00;99.90;;;;;;4927585;29;20190;-87
2022/01/17 00:20:40;;;;;;;562.03;91.82;;;0.00;99.90;;;;;;4944795;29;20063;-85
2022/01/17 00:23:06;;;;;;;829.75;117.22;;;-0.10;99.90;;;;;;4946080;29;20027;-86
2022/01/17 00:25:32;;;;;;;1089.22;132.88;;;-0.10;99.90;;;;;;4944255;29;20787;-87
2022/01/17 00:27:58;;;;;;;854.78;116.95;;;-0.10;99.90;;;;;;4944829;29;20444;-86
2022/01/17 00:30:23;;;;;;;875.40;120.00;;;-0.10;99.90;;;;;;4958248;28;20019;-89
2022/01/17 00:32:49;;;;;;;1022.13;131.77;;;-0.10;99.90;;;;;;4943648;29;20036;-86
2022/01/17 00:35:15;;;;;;;1247.43;153.23;;;-0.10;99.90;;;;;;4940702;29;20111;-86
2022/01/17 00:37:41;;;;;;;1002.80;126.72;;;-0.10;99.90;;;;;;4942000;29;20042;-87
2022/01/17 00:40:10;;;;;;;1471.38;165.95;;;-0.10;99.90;;;;;;4942406;29;20024;-86
2022/01/17 00:42:36;;;;;;;910.88;113.90;;;-0.10;99.90;;;;;;4941348;29;20051;-86
2022/01/17 00:45:06;;;;;;;494.58;86.75;;;-0.10;99.90;;;;;;4938537;29;20020;-87
2022/01/17 00:47:31;;;;;;;588.42;91.18;;;-0.10;99.90;;;;;;4942311;29;20046;-86
2022/01/17 00:49:57;;;;;;;876.03;117.65;;;-0.10;99.90;;;;;;4945878;29;20477;-84
2022/01/17 00:52:23;;;;;;;495.83;83.43;;;-0.10;99.90;;;;;;4939919;29;20393;-84
2022/01/17 00:54:49;;;;;;;705.83;101.00;;;-0.10;99.90;;;;;;4956279;28;20023;-85
2022/01/17 00:57:14;;;;;;;646.20;100.97;;;-0.10;99.90;;;;;;4942385;29;20034;-87
2022/01/17 00:59:40;;;;;;;376.70;80.38;;;-0.10;99.90;;;;;;4942500;29;20031;-85
2022/01/17 01:02:06;;;;;;;1081.03;128.50;;;-0.10;99.90;;;;;;4943073;29;20130;-87
2022/01/17 01:04:31;;;;;;;350.52;77.40;;;-0.10;99.90;;;;;;4943088;29;20024;-87
2022/01/17 01:06:57;;;;;;;312.67;76.10;;;-0.10;99.90;;;;;;4943340;29;20482;-87
2022/01/17 01:09:25;;;;;;;378.17;80.38;;;-0.10;99.90;;;;;;4942853;29;20043;-87
2022/01/17 01:11:53;;;;;;;370.92;78.75;;;-0.10;99.90;;;;;;4943115;29;20035;-86
2022/01/17 01:14:19;;;;;;;340.40;75.53;;;-0.10;99.90;;;;;;4942562;29;20057;-86
2022/01/17 01:16:44;;;;;;;323.10;75.15;;;-0.10;99.90;;;;;;4941984;29;20046;-86
2022/01/17 01:19:28;;;;;;;533.53;90.40;;;0.00;99.90;;;;;;4926699;29;20559;-86
2022/01/17 01:27:40;;;;;;;459.40;83.97;;;0.00;99.90;;;;;;4958297;29;20028;-87
2022/01/17 01:30:12;;;;;;;667.95;92.45;;;-0.10;99.90;;;;;;4942419;29;20031;-88
2022/01/17 01:32:47;;;;;;;987.00;115.15;;;-0.10;99.90;;;;;;4941580;29;20050;-87
2022/01/17 01:35:16;;;;;;;608.90;87.80;;;-0.10;99.90;;;;;;4942898;29;20050;-86
2022/01/17 01:37:44;;;;;;;496.63;83.85;;;-0.10;99.90;;;;;;4944083;29;20054;-85
2022/01/17 01:40:11;;;;;;;770.35;97.85;;;-0.10;99.90;;;;;;4942656;29;20340;-86
2022/01/17 01:42:37;;;;;;;730.67;94.30;;;-0.10;99.90;;;;;;4944716;29;20035;-86
2022/01/17 01:45:07;;;;;;;714.50;98.25;;;-0.10;99.90;;;;;;4946964;29;20031;-87
2022/01/17 01:47:33;;;;;;;524.42;78.75;;;-0.10;99.90;;;;;;4947127;29;20035;-89
2022/01/17 01:49:59;;;;;;;1161.95;118.85;;;-0.10;99.90;;;;;;4946763;29;20046;-87
2022/01/17 01:52:25;;;;;;;1045.40;116.32;;;-0.20;99.90;;;;;;4964770;29;20369;-88
2022/01/17 01:54:51;;;;;;;736.78;94.80;;;-0.20;99.90;;;;;;4947504;29;20638;-87
2022/01/17 01:57:17;;;;;;;1054.03;109.43;;;-0.20;99.90;;;;;;4947606;29;20042;-89
2022/01/17 01:59:43;;;;;;;1047.53;110.85;;;-0.30;99.90;;;;;;4947007;29;20093;-87
2022/01/17 02:02:09;;;;;;;833.13;105.47;;;-0.30;99.90;;;;;;4947138;29;20055;-84
2022/01/17 02:04:34;;;;;;;858.42;102.07;;;-0.30;99.90;;;;;;4948869;29;20030;-87
2022/01/17 02:07:00;;;;;;;1015.08;120.25;;;-0.30;99.90;;;;;;4958754;29;20038;-88
2022/01/17 02:09:26;;;;;;;916.67;112.60;;;-0.30;99.90;;;;;;4948934;29;20046;-85
2022/01/17 02:11:52;;;;;;;914.88;101.75;;;-0.30;99.90;;;;;;4929615;29;20039;-84
2022/01/17 02:14:18;;;;;;;800.22;97.03;;;-0.30;99.90;;;;;;4945824;29;20023;-85
2022/01/17 02:16:46;;;;;;;885.95;105.93;;;-0.30;99.90;;;;;;4943828;29;20035;-84
2022/01/17 02:19:13;;;;;;;838.80;100.30;;;-0.40;99.90;;;;;;4945959;29;20102;-85
2022/01/17 02:21:47;;;;;;;978.15;112.25;;;-0.40;99.90;;;;;;4946093;29;20027;-84
2022/01/17 02:24:16;;;;;;;1120.20;124.32;;;-0.30;99.90;;;;;;4945014;29;20041;-86
2022/01/17 02:26:46;;;;;;;1115.68;120.90;;;-0.40;99.90;;;;;;4945178;29;20036;-86
2022/01/17 02:29:12;;;;;;;1092.28;128.73;;;-0.40;99.90;;;;;;4944765;29;20114;-85
2022/01/17 02:31:38;;;;;;;938.67;112.82;;;-0.40;99.90;;;;;;4944627;29;20504;-86
2022/01/17 02:34:04;;;;;;;1026.68;117.60;;;-0.40;99.90;;;;;;4946217;29;20039;-84
2022/01/17 02:36:31;;;;;;;1006.80;118.05;;;-0.40;99.90;;;;;;4946608;29;20117;-86
2022/01/17 02:38:57;;;;;;;1090.15;120.35;;;-0.40;99.90;;;;;;4930942;29;20051;-85
2022/01/17 02:41:26;;;;;;;764.22;103.20;;;-0.40;99.90;;;;;;4946190;29;20035;-87
2022/01/17 02:43:52;;;;;;;927.22;112.97;;;-0.40;99.90;;;;;;4928898;29;20348;-86
2022/01/17 02:46:27;;;;;;;812.38;107.30;;;-0.30;99.90;;;;;;4945085;29;20094;-87
2022/01/17 02:48:55;;;;;;;446.52;78.00;;;-0.30;99.90;;;;;;4944439;29;20063;-88
2022/01/17 02:51:21;;;;;;;488.23;81.72;;;-0.30;99.90;;;;;;4944300;29;20035;-87
2022/01/17 02:53:47;;;;;;;791.00;107.57;;;-0.20;99.90;;;;;;4944496;29;20039;-85
2022/01/17 02:56:13;;;;;;;866.83;111.68;;;-0.20;99.90;;;;;;4944502;29;20093;-87
2022/01/17 02:58:40;;;;;;;659.53;91.82;;;-0.20;99.90;;;;;;4944712;29;20051;-85
2022/01/17 03:01:09;;;;;;;673.17;88.72;;;-0.20;99.90;;;;;;4944744;29;20127;-86
2022/01/17 03:03:36;;;;;;;844.97;94.97;;;-0.20;99.90;;;;;;4961494;28;20031;-85
2022/01/17 03:06:03;;;;;;;685.45;88.13;;;-0.30;99.90;;;;;;4945741;29;20094;-87
2022/01/17 03:08:32;;;;;;;627.63;93.53;;;-0.30;99.90;;;;;;4928730;29;20118;-84
2022/01/17 03:11:00;;;;;;;576.05;85.85;;;-0.30;99.90;;;;;;4943147;29;20467;-85
2022/01/17 03:13:32;;;;;;;783.42;96.80;;;-0.20;99.90;;;;;;4945193;29;20391;-86
2022/01/17 03:16:01;;;;;;;833.08;100.82;;;-0.20;99.90;;;;;;4943633;29;20098;-86
2022/01/17 03:18:30;;;;;;;490.13;80.32;;;-0.20;99.90;;;;;;4955783;28;20021;-85
2022/01/17 03:20:57;;;;;;;1093.20;123.38;;;-0.20;99.90;;;;;;4942669;29;20058;-88
2022/01/17 03:23:23;;;;;;;892.00;103.65;;;-0.20;99.90;;;;;;4943862;29;20223;-86
2022/01/17 03:25:49;;;;;;;1208.57;129.70;;;-0.20;99.90;;;;;;4942184;29;20031;-86
2022/01/17 03:28:15;;;;;;;786.58;98.60;;;-0.30;99.90;;;;;;4943816;29;20066;-86
2022/01/17 03:30:42;;;;;;;815.53;102.15;;;-0.30;99.90;;;;;;4944128;29;20046;-87
2022/01/17 03:33:11;;;;;;;928.08;106.03;;;-0.20;99.90;;;;;;4942920;29;20046;-88
2022/01/17 03:35:38;;;;;;;633.95;87.55;;;-0.20;99.90;;;;;;4943146;29;20125;-86
2022/01/17 03:38:06;;;;;;;724.85;90.95;;;-0.20;99.90;;;;;;4943354;29;20472;-85
2022/01/17 03:40:32;;;;;;;733.08;93.25;;;-0.20;99.90;;;;;;4943521;29;20040;-86
2022/01/17 03:42:58;;;;;;;864.47;100.22;;;-0.30;99.90;;;;;;4943801;29;20023;-87
2022/01/17 03:45:24;;;;;;;717.08;89.63;;;-0.30;99.90;;;;;;4945864;29;20054;-86
2022/01/17 03:47:50;;;;;;;1142.15;121.60;;;-0.40;99.90;;;;;;4944403;29;20035;-86
2022/01/17 03:50:21;;;;;;;1129.47;112.22;;;-0.40;99.90;;;;;;4944006;29;20031;-87
2022/01/17 03:52:48;;;;;;;1097.90;117.93;;;-0.40;99.90;;;;;;4943135;29;20027;-87
2022/01/17 03:55:17;;;;;;;1254.57;126.05;;;-0.50;99.90;;;;;;4942856;29;20118;-87
2022/01/17 03:57:44;;;;;;;1999.90;331.10;;;-0.50;99.90;;;;;;4943007;29;20477;-87
2022/01/17 04:00:13;;;;;;;1179.65;128.55;;;-0.40;99.90;;;;;;4943056;29;20035;-85
2022/01/17 04:02:39;;;;;;;1103.60;113.43;;;-0.50;99.90;;;;;;4942750;29;20035;-86
2022/01/17 04:05:06;;;;;;;878.90;101.18;;;-0.50;99.90;;;;;;4941913;29;20589;-86
2022/01/17 04:07:32;;;;;;;852.78;98.03;;;-0.50;99.90;;;;;;4943287;29;20042;-85
2022/01/17 04:09:57;;;;;;;994.20;106.45;;;-0.50;99.90;;;;;;4942757;29;20031;-86
2022/01/17 04:12:23;;;;;;;880.78;100.05;;;-0.50;99.90;;;;;;4943140;29;20122;-88
2022/01/17 04:14:54;;;;;;;1022.28;105.85;;;-0.50;99.90;;;;;;4943462;29;20107;-85
2022/01/17 04:17:20;;;;;;;1066.78;110.45;;;-0.50;99.90;;;;;;4943196;29;20031;-86
2022/01/17 04:19:49;;;;;;;998.33;104.30;;;-0.50;99.90;;;;;;4942933;29;20038;-84
2022/01/17 04:22:15;;;;;;;1007.30;112.20;;;-0.50;99.90;;;;;;4945986;28;20038;-89
2022/01/17 04:24:40;;;;;;;1285.20;126.93;;;-0.50;99.90;;;;;;4958200;28;20035;-83
2022/01/17 04:27:06;;;;;;;1051.05;107.05;;;-0.50;99.90;;;;;;4938997;29;20039;-84
2022/01/17 04:29:32;;;;;;;1056.90;118.93;;;-0.50;99.90;;;;;;4939021;29;20034;-82
2022/01/17 04:31:57;;;;;;;894.47;100.28;;;-0.50;99.90;;;;;;4939846;29;20023;-86
2022/01/17 04:34:23;;;;;;;1047.22;113.35;;;-0.50;99.90;;;;;;4941108;29;20043;-88
2022/01/17 04:36:49;;;;;;;500.02;73.63;;;-0.50;99.90;;;;;;4944183;29;20035;-87
2022/01/17 04:39:18;;;;;;;965.75;108.07;;;-0.50;99.90;;;;;;4951876;29;20027;-86
2022/01/17 04:41:43;;;;;;;1073.60;125.85;;;-0.50;99.90;;;;;;4948581;29;20482;-85
2022/01/17 04:46:53;;;;;;;973.95;113.55;;;-0.50;99.90;;;;;;4940951;29;20031;-89
2022/01/17 04:49:19;;;;;;;823.75;100.13;;;-0.50;99.90;;;;;;4940649;29;20046;-86
2022/01/17 04:51:45;;;;;;;690.45;90.28;;;-0.50;99.90;;;;;;4940350;29;20023;-87
2022/01/17 04:54:39;;;;;;;1045.60;122.35;;;-0.50;99.90;;;;;;4947835;29;20027;-87
2022/01/17 04:57:06;;;;;;;783.53;97.72;;;-0.50;99.90;;;;;;4948997;29;20078;-88
2022/01/17 04:59:31;;;;;;;899.60;108.03;;;-0.50;99.90;;;;;;4943382;29;20134;-85
2022/01/17 05:01:57;;;;;;;894.42;106.00;;;-0.60;99.90;;;;;;4941373;29;20075;-87
2022/01/17 05:04:23;;;;;;;876.78;103.78;;;-0.50;99.90;;;;;;4941688;29;20035;-88
2022/01/17 05:06:48;;;;;;;1028.32;114.68;;;-0.50;99.90;;;;;;4941340;29;20319;-87
2022/01/17 05:09:14;;;;;;;787.50;93.20;;;-0.50;99.90;;;;;;4942047;29;20042;-86
2022/01/17 05:11:41;;;;;;;788.25;97.90;;;-0.50;99.90;;;;;;4941959;29;20031;-86
2022/01/17 05:14:07;;;;;;;982.22;107.43;;;-0.40;99.90;;;;;;4953488;28;20115;-89
2022/01/17 05:16:38;;;;;;;947.72;116.05;;;-0.50;99.90;;;;;;4944786;28;20050;-87
2022/01/17 05:21:51;;;;;;;782.17;102.88;;;-0.50;99.90;;;;;;4944094;29;20041;-85
2022/01/17 05:24:16;;;;;;;634.70;82.85;;;-0.50;99.90;;;;;;4944365;29;20125;-87
2022/01/17 05:26:42;;;;;;;1030.68;112.90;;;-0.50;99.90;;;;;;4944403;29;20110;-86
2022/01/17 05:29:08;;;;;;;773.42;100.18;;;-0.50;99.90;;;;;;4944139;29;20027;-86
2022/01/17 05:31:34;;;;;;;761.65;99.65;;;-0.50;99.90;;;;;;4943648;29;20402;-85
2022/01/17 05:33:59;;;;;;;697.55;95.15;;;-0.50;99.90;;;;;;4943926;29;20480;-86
2022/01/17 05:36:25;;;;;;;777.53;97.63;;;-0.50;99.90;;;;;;4944503;29;20095;-88
2022/01/17 05:38:52;;;;;;;1020.42;130.00;;;-0.50;99.90;;;;;;4949263;28;20023;-87
2022/01/17 05:41:36;;;;;;;694.70;105.57;;;-0.50;99.90;;;;;;4933190;29;20044;-87
2022/01/17 05:44:19;;;;;;;835.50;97.80;;;-0.50;99.90;;;;;;4952683;29;20035;-89
2022/01/17 05:46:45;;;;;;;420.10;74.85;;;-0.40;99.90;;;;;;4950672;29;20043;-88
2022/01/17 05:49:11;;;;;;;589.92;85.82;;;-0.40;99.90;;;;;;4950393;29;20045;-88
2022/01/17 05:51:45;;;;;;;535.17;78.40;;;-0.40;99.90;;;;;;4946367;29;20011;-90
2022/01/17 05:54:18;;;;;;;843.40;100.93;;;-0.40;99.90;;;;;;4952153;28;20035;-88
2022/01/17 05:56:44;;;;;;;548.28;80.50;;;-0.40;99.90;;;;;;4935197;29;20035;-90
2022/01/17 05:59:10;;;;;;;659.63;87.30;;;-0.40;99.90;;;;;;4959685;28;20114;-89
2022/01/17 06:01:42;;;;;;;471.88;72.60;;;-0.40;99.90;;;;;;4921866;29;20063;-90
2022/01/17 06:04:08;;;;;;;456.40;74.40;;;-0.40;99.90;;;;;;4918043;29;20489;-89
2022/01/17 06:06:36;;;;;;;682.22;94.88;;;-0.30;99.90;;;;;;4927035;29;20024;-88
2022/01/17 06:09:03;;;;;;;518.50;77.90;;;-0.30;99.90;;;;;;4927177;29;20078;-88
2022/01/17 06:11:30;;;;;;;694.78;89.90;;;-0.30;99.90;;;;;;4928416;29;20053;-87
2022/01/17 06:13:57;;;;;;;471.73;70.68;;;-0.30;99.90;;;;;;4909957;28;20032;-87
2022/01/17 06:16:23;;;;;;;604.05;78.70;;;-0.40;99.90;;;;;;4943079;29;20033;-87
2022/01/17 06:18:51;;;;;;;661.20;87.28;;;-0.40;99.90;;;;;;4942773;29;20693;-87
2022/01/17 06:21:17;;;;;;;991.38;108.22;;;-0.40;99.90;;;;;;4939484;29;20036;-87
2022/01/17 06:23:43;;;;;;;576.55;81.63;;;-0.40;99.90;;;;;;4939174;29;20047;-89
2022/01/17 06:26:09;;;;;;;628.42;91.72;;;-0.40;99.90;;;;;;4939097;29;20032;-87
2022/01/17 06:28:35;;;;;;;381.45;68.05;;;-0.40;99.90;;;;;;4938305;29;20355;-87
2022/01/17 06:31:00;;;;;;;379.38;70.53;;;-0.40;99.90;;;;;;4939017;29;20047;-88
2022/01/17 06:33:26;;;;;;;463.13;71.88;;;-0.30;99.90;;;;;;4938113;29;20094;-87
2022/01/17 06:35:52;;;;;;;520.42;74.68;;;-0.40;99.90;;;;;;4922143;29;20036;-86
2022/01/17 06:38:18;;;;;;;545.47;74.38;;;-0.30;99.90;;;;;;4937883;29;20035;-87
2022/01/17 06:40:43;;;;;;;636.13;86.68;;;-0.30;99.90;;;;;;4937369;29;20035;-87
2022/01/17 06:43:10;;;;;;;808.60;91.40;;;-0.30;99.90;;;;;;4937350;29;20031;-88
2022/01/17 06:45:37;;;;;;;858.28;91.32;;;-0.30;99.90;;;;;;4922050;29;20043;-87
2022/01/17 06:48:05;;;;;;;403.30;68.40;;;-0.30;99.90;;;;;;4937734;29;20035;-87
2022/01/17 06:50:32;;;;;;;491.30;73.53;;;-0.40;99.90;;;;;;4937578;29;20032;-87
2022/01/17 06:52:58;;;;;;;643.30;81.65;;;-0.40;99.90;;;;;;4939115;29;20040;-87
2022/01/17 06:55:24;;;;;;;846.42;87.43;;;-0.40;99.90;;;;;;4937339;29;20036;-85
2022/01/17 06:57:50;;;;;;;738.25;93.75;;;-0.40;99.90;;;;;;4938033;29;20032;-88
2022/01/17 07:00:15;;;;;;;502.80;73.00;;;-0.40;99.90;;;;;;4938155;29;20067;-86
2022/01/17 07:02:41;;;;;;;659.53;81.05;;;-0.40;99.90;;;;;;4938059;29;20504;-87
2022/01/17 07:05:10;;;;;;;919.78;97.82;;;-0.40;99.90;;;;;;4938370;29;20389;-86
2022/01/17 07:07:36;;;;;;;790.30;87.72;;;-0.50;99.90;;;;;;4939099;29;20036;-87
2022/01/17 07:10:04;;;;;;;639.17;76.25;;;-0.50;99.90;;;;;;4938562;29;20401;-88
2022/01/17 07:12:29;;;;;;;672.22;80.53;;;-0.50;99.90;;;;;;4943866;29;20091;-86
2022/01/17 07:14:55;;;;;;;531.60;74.13;;;-0.40;99.90;;;;;;4944670;29;20035;-85
2022/01/17 07:17:21;;;;;;;824.47;99.60;;;-0.50;99.90;;;;;;4928406;29;20404;-86
2022/01/17 07:19:55;;;;;;;484.95;67.47;;;-0.50;99.90;;;;;;4946491;29;20038;-87
2022/01/17 07:22:21;;;;;;;433.17;68.40;;;-0.40;99.90;;;;;;4923981;29;20042;-87
2022/01/17 07:24:47;;;;;;;508.27;76.32;;;-0.40;99.90;;;;;;4938916;29;20015;-85
2022/01/17 07:27:17;;;;;;;363.30;66.63;;;-0.40;99.90;;;;;;4939080;29;20476;-86
2022/01/17 07:29:43;;;;;;;697.88;83.35;;;-0.30;99.90;;;;;;4939515;29;20031;-86
2022/01/17 07:32:18;;;;;;;412.95;70.00;;;-0.30;99.90;;;;;;4940218;29;20063;-86
2022/01/17 07:34:44;;;;;;;381.42;72.32;;;-0.30;99.90;;;;;;4938637;29;20070;-86
2022/01/17 07:37:10;;;;;;;502.20;73.10;;;-0.30;99.90;;;;;;4938872;29;20548;-85
2022/01/17 07:39:35;;;;;;;496.33;77.10;;;-0.30;99.90;;;;;;4956262;28;20396;-86
2022/01/17 07:42:10;;;;;;;800.38;95.25;;;-0.20;99.90;;;;;;4919935;29;20031;-87
2022/01/17 07:44:40;;;;;;;377.17;65.13;;;-0.20;99.90;;;;;;4916202;29;20035;-85
2022/01/17 07:47:06;;;;;;;837.97;97.25;;;-0.20;99.90;;;;;;4936062;29;20682;-85
2022/01/17 07:49:32;;;;;;;864.60;89.00;;;-0.30;99.90;;;;;;4939090;29;20078;-85
2022/01/17 07:52:04;;;;;;;686.15;80.55;;;-0.30;99.90;;;;;;4940912;29;20562;-87
2022/01/17 07:54:32;;;;;;;973.83;105.45;;;-0.30;99.90;;;;;;4941705;29;20424;-86
2022/01/17 07:56:59;;;;;;;971.65;107.15;;;-0.30;99.90;;;;;;4938597;29;20392;-86
2022/01/17 07:59:26;;;;;;;751.55;89.35;;;-0.30;99.90;;;;;;4921786;29;20027;-87
2022/01/17 08:01:52;;;;;;;945.33;96.35;;;-0.30;99.90;;;;;;4959847;28;20090;-87
2022/01/17 08:04:27;;;;;;;705.78;84.75;;;-0.30;99.90;;;;;;4926864;29;20027;-86
2022/01/17 08:06:55;;;;;;;1295.00;118.57;;;-0.30;99.90;;;;;;4952606;28;20089;-85
2022/01/17 08:09:26;;;;;;;633.58;81.93;;;-0.30;99.90;;;;;;4958846;28;20122;-85
2022/01/17 08:11:52;;;;;;;568.80;84.85;;;-0.30;99.90;;;;;;4937666;29;20059;-84
2022/01/17 08:14:18;;;;;;;551.75;84.18;;;-0.20;99.90;;;;;;4920436;29;20039;-83
2022/01/17 08:16:44;;;;;;;312.02;65.45;;;-0.20;99.90;;;;;;4952866;29;20031;-85
2022/01/17 08:19:10;;;;;;;672.83;84.10;;;-0.20;99.90;;;;;;4947030;28;20018;-84
2022/01/17 08:21:35;;;;;;;372.55;63.05;;;-0.10;99.90;;;;;;4955935;28;20054;-86
2022/01/17 08:24:01;;;;;;;575.97;80.50;;;-0.10;99.90;;;;;;4934536;29;20126;-86
2022/01/17 08:26:27;;;;;;;749.72;89.40;;;-0.10;99.90;;;;;;4935292;29;20043;-84
2022/01/17 08:28:59;;;;;;;819.92;96.55;;;-0.10;99.90;;;;;;4935109;29;20039;-85
2022/01/17 08:31:25;;;;;;;444.73;74.60;;;-0.10;99.90;;;;;;4942327;29;20094;-84
2022/01/17 08:33:51;;;;;;;648.15;82.20;;;-0.10;99.90;;;;;;4938323;29;20080;-84
2022/01/17 08:36:19;;;;;;;899.90;100.57;;;-0.10;99.90;;;;;;4947952;28;20038;-87
2022/01/17 08:38:49;;;;;;;346.73;66.30;;;-0.10;99.90;;;;;;4942539;28;20038;-86
2022/01/17 08:41:17;;;;;;;475.45;77.10;;;-0.10;99.90;;;;;;4957953;28;20423;-85
2022/01/17 08:43:43;;;;;;;610.83;85.05;;;-0.10;99.90;;;;;;4944294;28;20038;-86
2022/01/17 08:46:16;;;;;;;498.10;71.55;;;0.00;99.90;;;;;;4958590;28;20078;-89
2022/01/17 08:48:42;;;;;;;745.70;91.95;;;0.00;99.90;;;;;;4958721;28;20042;-87
2022/01/17 08:51:18;;;;;;;457.92;68.05;;;0.00;99.90;;;;;;4958331;28;20404;-89
2022/01/17 08:53:44;;;;;;;443.38;68.63;;;0.00;99.90;;;;;;4944595;28;20031;-87
2022/01/17 08:56:11;;;;;;;523.75;73.38;;;0.20;99.90;;;;;;4946478;28;20026;-87
2022/01/17 08:58:36;;;;;;;273.27;61.15;;;0.00;99.90;;;;;;4946303;28;20115;-85
2022/01/17 09:01:02;;;;;;;453.23;68.70;;;0.00;99.90;;;;;;4952681;28;20055;-87
2022/01/17 09:03:31;;;;;;;469.85;73.00;;;0.00;99.90;;;;;;4941171;29;20031;-87
2022/01/17 09:06:26;;;;;;;;;;;;;;;;;;;;;
2022/01/17 09:08:52;;;;;;;272.25;65.97;;;0.00;99.90;;;;;;4943224;29;20027;-86
2022/01/17 09:11:18;;;;;;;407.08;76.22;;;0.10;99.90;;;;;;4958501;28;20045;-84
2022/01/17 09:13:44;;;;;;;635.58;87.22;;;0.00;99.90;;;;;;4962336;28;20038;-84
2022/01/17 09:16:09;;;;;;;290.95;58.72;;;0.00;99.90;;;;;;4961941;28;20027;-83
2022/01/17 09:18:36;;;;;;;394.30;66.65;;;0.00;99.90;;;;;;4947004;28;20039;-87
2022/01/17 09:21:47;;;;;;;484.05;76.75;;;0.00;99.90;;;;;;4962373;28;20404;-85
2022/01/17 09:24:41;;;;;;;283.00;61.50;;;0.10;99.90;;;;;;4947913;28;20019;-83
2022/01/17 09:27:18;;;;;;;472.27;67.45;;;0.00;99.90;;;;;;4958319;28;20098;-86
2022/01/17 09:29:45;;;;;;;244.98;64.53;;;0.00;99.90;;;;;;4943604;29;20042;-85
2022/01/17 09:32:16;;;;;;;323.63;69.55;;;0.10;99.90;;;;;;4942781;29;20023;-85
2022/01/17 09:34:43;;;;;;;330.52;74.28;;;0.20;99.90;;;;;;4942037;29;20401;-84
2022/01/17 09:37:10;;;;;;;323.88;68.60;;;0.20;99.90;;;;;;4941924;29;20032;-85
2022/01/17 09:39:37;;;;;;;261.38;62.35;;;0.20;99.90;;;;;;4938494;29;20071;-85
2022/01/17 09:42:05;;;;;;;284.13;64.93;;;0.20;99.90;;;;;;4926200;29;20107;-85
2022/01/17 09:44:33;;;;;;;264.98;66.55;;;0.30;99.90;;;;;;4926697;29;20698;-83
2022/01/17 09:46:59;;;;;;;254.52;64.95;;;0.30;99.90;;;;;;4941660;29;20031;-85
2022/01/17 09:49:38;;;;;;;247.65;64.70;;;0.30;99.90;;;;;;4941942;29;20118;-86
2022/01/17 09:52:51;;;;;;;208.38;56.88;;;0.40;99.90;;;;;;4940674;29;20044;-86
2022/01/17 09:54:54;;;;;;;220.50;63.17;;;0.40;99.90;;;;;;4928690;29;20039;-85
2022/01/17 09:57:21;;;;;;;230.38;61.33;;;0.40;99.90;;;;;;4940164;29;20051;-83
2022/01/17 09:59:47;;;;;;;271.05;64.97;;;0.40;99.90;;;;;;4939459;29;20067;-87
2022/01/17 10:02:13;;;;;;;267.73;61.55;;;0.40;99.90;;;;;;4937951;29;20357;-86
2022/01/17 10:04:39;;;;;;;217.95;57.42;;;0.40;99.90;;;;;;4938207;29;20030;-87
2022/01/17 10:07:07;;;;;;;227.80;57.97;;;0.40;99.90;;;;;;4939743;29;20023;-85
2022/01/17 10:09:35;;;;;;;234.68;61.30;;;0.40;99.90;;;;;;4936431;29;20370;-86
2022/01/17 10:12:16;;;;;;;207.75;57.80;;;0.40;99.90;;;;;;4920033;29;20048;-86
2022/01/17 10:14:44;;;;;;;215.88;54.40;;;0.40;99.90;;;;;;4920228;29;20558;-85
2022/01/17 10:17:16;;;;;;;205.90;56.72;;;0.40;99.90;;;;;;4920476;29;20039;-86
2022/01/17 10:19:45;;;;;;;229.55;58.17;;;0.40;99.90;;;;;;4904193;29;20130;-86
2022/01/17 10:22:17;;;;;;;346.02;82.07;;;0.40;99.90;;;;;;4920982;29;20052;-85
2022/01/17 10:25:02;;;;;;;203.05;57.40;;;0.40;99.90;;;;;;4920303;29;20092;-86
2022/01/17 10:30:28;;;;;;;204.32;59.15;;;0.50;99.90;;;;;;4921421;29;20028;-85
2022/01/17 10:35:49;;;;;;;211.57;58.35;;;0.60;99.90;;;;;;4938807;29;20070;-85
2022/01/17 10:38:24;;;;;;;179.60;53.33;;;0.50;99.90;;;;;;4918479;29;20103;-85
2022/01/17 10:40:59;;;;;;;186.07;50.05;;;0.60;99.90;;;;;;4946440;29;20594;-83
2022/01/17 10:43:34;;;;;;;192.85;56.90;;;0.60;99.90;;;;;;4939720;29;20117;-83
2022/01/17 10:46:05;;;;;;;172.95;53.45;;;0.70;99.90;;;;;;4934329;29;20034;-85
2022/01/17 10:48:36;;;;;;;176.55;58.63;;;0.70;99.90;;;;;;4950130;28;20038;-84
2022/01/17 10:51:05;;;;;;;204.60;59.80;;;0.70;99.90;;;;;;4918343;29;20452;-84
2022/01/17 10:53:31;;;;;;;168.18;56.65;;;0.70;99.90;;;;;;4941196;29;20539;-84
2022/01/17 10:55:59;;;;;;;172.75;52.60;;;0.80;99.90;;;;;;4924972;29;20027;-85
2022/01/17 10:58:29;;;;;;;176.55;53.17;;;0.80;99.90;;;;;;4940673;29;20094;-83
2022/01/17 11:01:01;;;;;;;184.48;55.88;;;0.80;99.90;;;;;;4941038;29;20047;-84
2022/01/17 11:03:30;;;;;;;158.93;47.88;;;0.80;99.90;;;;;;4940340;29;20035;-84
2022/01/17 11:06:00;;;;;;;153.43;48.92;;;0.90;99.90;;;;;;4923580;29;20035;-84
2022/01/17 11:08:28;;;;;;;165.55;52.55;;;0.80;99.90;;;;;;4940405;29;20110;-84
2022/01/17 11:10:56;;;;;;;158.63;50.13;;;0.90;99.90;;;;;;4937522;29;20085;-83
2022/01/17 11:13:25;;;;;;;154.63;48.35;;;0.90;99.90;;;;;;4921941;29;20073;-83
2022/01/17 11:16:01;;;;;;;166.25;49.13;;;1.00;99.90;;;;;;4937471;29;20023;-86
2022/01/17 11:18:29;;;;;;;136.18;47.78;;;0.90;99.90;;;;;;4938211;29;20035;-84
2022/01/17 11:20:57;;;;;;;133.93;46.83;;;1.00;99.90;;;;;;4938611;29;20035;-84
2022/01/17 11:23:23;;;;;;;134.45;45.03;;;1.10;99.90;;;;;;4938916;29;20036;-83
2022/01/17 11:25:54;;;;;;;129.10;45.10;;;1.00;99.90;;;;;;4938606;29;20035;-85
2022/01/17 11:28:22;;;;;;;123.25;43.67;;;1.10;99.90;;;;;;4938779;29;20019;-84
2022/01/17 11:30:53;;;;;;;128.40;42.78;;;1.10;99.90;;;;;;4938226;29;20027;-85
2022/01/17 11:33:19;;;;;;;113.15;45.67;;;1.10;99.90;;;;;;4944037;28;20023;-84
2022/01/17 11:35:51;;;;;;;122.65;43.92;;;1.10;99.90;;;;;;4933709;29;20488;-84
2022/01/17 11:38:28;;;;;;;104.68;37.42;;;1.20;99.90;;;;;;4937336;29;20492;-84
2022/01/17 11:40:55;;;;;;;98.18;38.65;;;1.30;99.90;;;;;;4936365;29;20111;-84
2022/01/17 11:43:35;;;;;;;85.57;35.53;;;1.30;99.90;;;;;;4952315;29;20031;-85
2022/01/17 11:46:19;;;;;;;88.32;36.25;;;1.30;99.90;;;;;;4936567;29;20030;-85
2022/01/17 11:48:57;;;;;;;87.38;35.78;;;1.40;99.90;;;;;;4938708;29;20027;-87
2022/01/17 11:51:33;;;;;;;91.90;39.67;;;1.40;99.90;;;;;;4921776;29;20035;-85
2022/01/17 11:54:09;;;;;;;80.97;33.30;;;1.50;99.90;;;;;;4937011;29;20177;-85
2022/01/17 11:56:58;;;;;;;73.55;31.48;;;1.60;99.90;;;;;;4938722;29;20062;-85
2022/01/17 11:59:38;;;;;;;67.22;29.60;;;1.50;99.90;;;;;;4911194;29;20051;-85
2022/01/17 12:02:17;;;;;;;58.55;28.27;;;1.60;99.90;;;;;;4938455;29;20039;-85
2022/01/17 12:05:02;;;;;;;65.38;28.13;;;1.50;99.90;;;;;;4921907;29;20039;-86
2022/01/17 12:07:38;;;;;;;59.92;25.08;;;1.50;99.90;;;;;;4922305;29;20540;-88
2022/01/17 12:10:15;;;;;;;67.00;28.42;;;1.50;99.90;;;;;;4923087;29;20110;-85
2022/01/17 12:12:42;;;;;;;83.72;35.03;;;1.40;99.90;;;;;;4939375;29;20039;-87
2022/01/17 12:15:16;;;;;;;86.00;33.70;;;1.50;99.90;;;;;;4951562;28;20128;-86
2022/01/17 12:17:43;;;;;;;64.70;28.95;;;1.50;99.90;;;;;;4944573;29;20519;-86
2022/01/17 12:20:13;;;;;;;65.15;27.45;;;1.50;99.90;;;;;;4951884;29;20057;-86
2022/01/17 12:22:39;;;;;;;59.70;27.35;;;1.50;99.90;;;;;;4920430;29;20039;-86
2022/01/17 12:25:28;;;;;;;62.55;28.33;;;1.50;99.90;;;;;;4920808;28;20107;-87
2022/01/17 12:28:03;;;;;;;57.20;28.20;;;1.60;99.90;;;;;;4922569;29;20117;-86
2022/01/17 12:30:53;;;;;;;59.42;28.00;;;1.80;99.90;;;;;;4921065;29;20042;-87
2022/01/17 12:33:40;;;;;;;54.60;25.48;;;1.90;99.90;;;;;;4938804;29;20050;-86
2022/01/17 12:36:42;;;;;;;54.15;23.95;;;1.90;99.90;;;;;;4937539;29;20031;-88
2022/01/17 12:39:20;;;;;;;52.25;23.27;;;1.90;99.90;;;;;;4876372;29;20064;-87
2022/01/17 12:42:11;;;;;;;49.53;23.38;;;1.90;99.90;;;;;;4941405;28;20074;-87
2022/01/17 12:44:43;;;;;;;53.63;23.42;;;2.00;99.90;;;;;;4922416;29;20027;-85
2022/01/17 12:47:09;;;;;;;43.40;21.00;;;2.00;99.90;;;;;;4935954;29;20051;-87